Terminal Aerodrome Forecast
Issued by NWS

Home | Current Version | Previous Version | Text Only | Print | Product List | Glossary On
Versions: 1 2 3 4 5 6 7 8 9 10 11 12
000
FTUS42 KTBW 042337
TAFLAL
TAF
KLAL 042337Z 0500/0524 07011G21KT P6SM SCT050 SCT250
     FM050200 07006KT P6SM SCT050 SCT250
     FM051400 08012KT P6SM BKN040
     FM051800 08010G20KT P6SM VCSH SCT030 BKN050=

USA.gov is the U.S. government's official web portal to all federal, state and local government web resources and services.